Time;durP1;ratioP1;P1;durP2;ratioP2;P2;SDS_P1;SDS_P2;PMS_P1;PMS_P2;Temp;Humidity;BMP_temperature;BMP_pressure;BME280_temperature;BME280_humidity;BME280_pressure;Samples;Min_cycle;Max_cycle;Signal;HPM_P1;HPM_P2
2021/07/02 00:01:23;;;;;;;5.88;3.60;;;537.60;2406.40;;;;;;5053716;28;20372;-71
2021/07/02 00:03:49;;;;;;;5.20;3.40;;;537.60;2406.40;;;;;;5062206;28;20020;-72
2021/07/02 00:06:15;;;;;;;4.78;3.20;;;512.90;2380.80;;;;;;5054993;28;20135;-72
2021/07/02 00:08:40;;;;;;;4.63;3.00;;;512.90;2380.80;;;;;;5054947;28;20052;-76
2021/07/02 00:11:06;;;;;;;5.72;3.20;;;512.90;2380.80;;;;;;5054713;28;20036;-71
2021/07/02 00:13:32;;;;;;;5.65;3.00;;;512.90;2380.80;;;;;;5053862;28;20028;-81
2021/07/02 00:15:58;;;;;;;4.72;3.15;;;512.90;2380.80;;;;;;5055306;28;20479;-81
2021/07/02 00:18:23;;;;;;;6.07;3.67;;;512.90;2380.80;;;;;;5054444;28;20035;-81
2021/07/02 00:20:49;;;;;;;3.80;2.70;;;512.90;2380.80;;;;;;5053429;28;20048;-76
2021/07/02 00:23:15;;;;;;;4.55;2.72;;;512.90;2380.80;;;;;;5054413;28;20025;-76
2021/07/02 00:25:40;;;;;;;4.03;2.67;;;512.80;2380.80;;;;;;5054518;28;20025;-75
2021/07/02 00:28:07;;;;;;;5.20;2.90;;;512.70;2380.80;;;;;;5054479;28;20167;-75
2021/07/02 00:30:35;;;;;;;5.97;2.90;;;512.60;2380.80;;;;;;5054165;28;20078;-75
2021/07/02 00:33:02;;;;;;;4.22;2.53;;;512.50;2380.80;;;;;;5054415;28;20488;-75
2021/07/02 00:35:27;;;;;;;3.55;2.60;;;512.40;2380.80;;;;;;5054388;28;20075;-75
2021/07/02 00:37:53;;;;;;;5.50;2.90;;;512.40;2380.80;;;;;;5053069;28;20021;-72
2021/07/02 00:40:19;;;;;;;4.00;2.50;;;512.40;2380.80;;;;;;5050236;28;20437;-71
2021/07/02 00:42:45;;;;;;;4.63;2.60;;;512.30;2380.80;;;;;;5054089;28;20025;-71
2021/07/02 00:45:11;;;;;;;5.38;2.60;;;512.30;2380.80;;;;;;5054098;28;20028;-75
2021/07/02 00:47:37;;;;;;;4.53;2.80;;;512.20;2380.80;;;;;;5054179;28;20017;-75
2021/07/02 00:50:06;;;;;;;4.35;2.60;;;512.20;2380.80;;;;;;5053848;28;20101;-77
2021/07/02 00:52:32;;;;;;;5.40;2.47;;;512.20;2380.80;;;;;;5053059;28;20101;-76
2021/07/02 00:54:58;;;;;;;4.40;2.67;;;512.20;2380.80;;;;;;5057837;28;20024;-74
2021/07/02 00:57:25;;;;;;;4.35;2.40;;;512.20;2380.80;;;;;;5057657;28;20029;-76
2021/07/02 00:59:51;;;;;;;3.90;2.42;;;512.10;2380.80;;;;;;5053910;28;20057;-71
2021/07/02 01:02:16;;;;;;;8.02;2.83;;;512.10;2380.80;;;;;;5059906;28;20031;-72
2021/07/02 01:04:42;;;;;;;4.13;2.47;;;512.10;2380.80;;;;;;5053557;28;20024;-72
2021/07/02 01:07:11;;;;;;;4.80;2.50;;;512.00;2380.80;;;;;;5053739;28;20096;-73
2021/07/02 01:09:38;;;;;;;3.30;2.28;;;512.00;2380.80;;;;;;5054275;28;20100;-75
2021/07/02 01:12:05;;;;;;;5.18;2.40;;;512.00;2380.80;;;;;;5053788;28;20032;-72
2021/07/02 01:14:31;;;;;;;4.30;2.60;;;512.00;2380.80;;;;;;5053734;28;20036;-73
2021/07/02 01:16:58;;;;;;;5.20;2.58;;;512.00;2380.80;;;;;;5053582;28;20029;-71
2021/07/02 01:19:23;;;;;;;5.60;2.30;;;512.00;2380.80;;;;;;5052165;28;20083;-72
2021/07/02 01:21:53;;;;;;;4.72;2.38;;;512.00;2380.80;;;;;;5054202;28;20483;-70
2021/07/02 01:24:19;;;;;;;3.83;2.40;;;487.30;2380.80;;;;;;5055280;28;20067;-72
2021/07/02 01:26:45;;;;;;;3.42;2.55;;;487.30;2380.80;;;;;;5053150;28;20028;-76
2021/07/02 01:29:11;;;;;;;3.45;2.40;;;487.30;2380.80;;;;;;5053480;28;20032;-75
2021/07/02 01:31:36;;;;;;;3.30;2.22;;;487.30;2380.80;;;;;;5053062;28;20025;-75
2021/07/02 01:34:03;;;;;;;3.95;2.47;;;487.20;2380.80;;;;;;5053160;28;20060;-75
2021/07/02 01:36:29;;;;;;;4.63;2.50;;;487.10;2380.80;;;;;;5053039;28;20029;-76
2021/07/02 01:38:55;;;;;;;3.85;2.58;;;487.10;2380.80;;;;;;5054469;28;20029;-77
2021/07/02 01:41:21;;;;;;;4.90;2.60;;;487.10;2380.80;;;;;;5052905;28;20025;-73
2021/07/02 01:43:47;;;;;;;7.30;2.80;;;487.20;2380.80;;;;;;5052899;28;20032;-77
2021/07/02 01:46:13;;;;;;;7.28;2.95;;;487.10;2380.80;;;;;;5051866;28;20025;-77
2021/07/02 01:48:39;;;;;;;4.07;2.63;;;487.10;2380.80;;;;;;5052476;28;20028;-76
2021/07/02 01:51:05;;;;;;;7.85;4.35;;;487.10;2380.80;;;;;;5052741;28;20053;-71
2021/07/02 01:53:31;;;;;;;5.68;2.88;;;487.10;2380.80;;;;;;5052306;28;20032;-70
2021/07/02 01:55:57;;;;;;;6.28;3.20;;;487.00;2380.80;;;;;;5057931;28;20078;-73
2021/07/02 01:58:23;;;;;;;5.00;3.00;;;487.00;2380.80;;;;;;5052880;28;20569;-71
2021/07/02 02:00:49;;;;;;;4.75;2.83;;;486.90;2380.80;;;;;;5052601;28;20039;-71
2021/07/02 02:03:14;;;;;;;4.85;3.00;;;486.90;2380.80;;;;;;5054190;28;20498;-71
2021/07/02 02:05:40;;;;;;;4.90;3.05;;;487.00;2380.80;;;;;;5051105;28;20051;-72
2021/07/02 02:08:06;;;;;;;5.57;2.83;;;486.90;2380.80;;;;;;5052616;28;20029;-72
2021/07/02 02:10:32;;;;;;;4.57;3.20;;;486.90;2380.80;;;;;;5052224;28;20489;-71
2021/07/02 02:12:57;;;;;;;9.15;3.60;;;486.90;2380.80;;;;;;5052647;28;20409;-71
2021/07/02 02:15:23;;;;;;;4.88;3.60;;;487.00;2380.80;;;;;;5052736;28;20124;-70
2021/07/02 02:17:49;;;;;;;4.95;3.15;;;487.00;2380.80;;;;;;5051346;28;20925;-71
2021/07/02 02:20:15;;;;;;;6.05;3.08;;;487.00;2380.80;;;;;;5052504;28;20029;-71
2021/07/02 02:22:41;;;;;;;5.50;3.10;;;486.90;2380.80;;;;;;5052269;28;20037;-71
2021/07/02 02:25:08;;;;;;;4.53;3.00;;;487.00;2380.80;;;;;;5052566;28;20100;-72
2021/07/02 02:27:34;;;;;;;5.38;3.20;;;487.00;2380.80;;;;;;5052549;28;20021;-71
2021/07/02 02:30:00;;;;;;;6.53;3.03;;;486.90;2380.80;;;;;;5052301;28;20490;-71
2021/07/02 02:32:26;;;;;;;4.22;3.05;;;486.90;2380.80;;;;;;5052265;28;20025;-70
2021/07/02 02:34:52;;;;;;;4.50;3.17;;;486.90;2380.80;;;;;;5051387;28;20033;-70
2021/07/02 02:37:18;;;;;;;4.78;3.08;;;486.80;2380.80;;;;;;5051667;28;20021;-71
2021/07/02 02:39:44;;;;;;;5.88;3.38;;;486.80;2380.80;;;;;;5052175;28;20549;-72
2021/07/02 02:42:10;;;;;;;6.57;2.95;;;486.80;2380.80;;;;;;5052144;28;20025;-74
2021/07/02 02:44:35;;;;;;;5.97;3.63;;;486.70;2380.80;;;;;;5052240;28;20029;-75
2021/07/02 02:47:01;;;;;;;6.10;3.10;;;486.70;2380.80;;;;;;5066258;28;20025;-75
2021/07/02 02:49:28;;;;;;;5.43;3.00;;;486.60;2380.80;;;;;;5052442;28;20021;-77
2021/07/02 02:51:53;;;;;;;6.18;3.17;;;486.60;2380.80;;;;;;5052068;28;20371;-74
2021/07/02 02:54:19;;;;;;;5.63;2.90;;;486.50;2380.80;;;;;;5052171;28;20029;-72
2021/07/02 02:57:04;;;;;;;5.28;2.83;;;486.50;2380.80;;;;;;5057002;28;20040;-71
2021/07/02 02:59:30;;;;;;;4.95;2.70;;;486.50;2380.80;;;;;;5052125;28;20541;-75
2021/07/02 03:01:56;;;;;;;5.32;2.88;;;486.50;2380.80;;;;;;5054925;28;20025;-76
2021/07/02 03:04:22;;;;;;;6.15;2.80;;;486.50;2380.80;;;;;;5051981;28;20168;-76
2021/07/02 03:06:48;;;;;;;6.03;2.83;;;486.50;2380.80;;;;;;5052067;28;20029;-76
2021/07/02 03:09:14;;;;;;;5.47;2.85;;;486.50;2380.80;;;;;;5051824;28;20063;-75
2021/07/02 03:11:40;;;;;;;6.47;2.70;;;486.50;2380.80;;;;;;5051946;28;20017;-71
2021/07/02 03:14:05;;;;;;;5.18;3.03;;;486.50;2380.80;;;;;;5053699;28;20052;-71
2021/07/02 03:16:32;;;;;;;4.65;2.90;;;486.50;2380.80;;;;;;5065506;28;20503;-71
2021/07/02 03:18:58;;;;;;;4.53;3.08;;;486.50;2380.80;;;;;;5055710;28;20487;-72
2021/07/02 03:21:24;;;;;;;7.07;3.00;;;486.50;2380.80;;;;;;5055658;28;20078;-76
2021/07/02 03:23:50;;;;;;;4.20;2.92;;;486.50;2380.80;;;;;;5054395;28;20033;-76
2021/07/02 03:26:17;;;;;;;5.57;3.10;;;486.50;2380.80;;;;;;5055485;28;20104;-72
2021/07/02 03:28:46;;;;;;;5.95;3.50;;;486.50;2380.80;;;;;;5055603;28;20108;-71
2021/07/02 03:31:12;;;;;;;8.57;3.40;;;486.50;2380.80;;;;;;5055476;28;20060;-74
2021/07/02 03:33:37;;;;;;;5.90;3.20;;;486.40;2380.80;;;;;;5055316;28;20052;-71
2021/07/02 03:36:03;;;;;;;6.15;3.50;;;486.50;2380.80;;;;;;5055445;28;20041;-71
2021/07/02 03:38:29;;;;;;;6.63;3.53;;;486.40;2380.80;;;;;;5055115;28;20028;-71
2021/07/02 03:40:55;;;;;;;6.22;3.40;;;486.50;2380.80;;;;;;5055346;28;20025;-72
2021/07/02 03:43:20;;;;;;;5.13;3.40;;;486.50;2380.80;;;;;;5055175;28;20032;-73
2021/07/02 03:45:46;;;;;;;5.60;3.42;;;486.50;2380.80;;;;;;5055136;28;20196;-70
2021/07/02 03:48:12;;;;;;;4.30;3.22;;;486.50;2380.80;;;;;;5055265;28;20044;-74
2021/07/02 03:50:38;;;;;;;6.30;3.50;;;486.50;2380.80;;;;;;5054813;28;20037;-72
2021/07/02 03:53:04;;;;;;;6.43;3.30;;;486.60;2380.80;;;;;;5055155;28;20060;-76
2021/07/02 03:55:31;;;;;;;5.95;3.25;;;486.60;2380.80;;;;;;5059940;28;20029;-76
2021/07/02 03:57:56;;;;;;;6.72;3.50;;;486.60;2380.80;;;;;;5055250;28;20056;-76
2021/07/02 04:00:22;;;;;;;6.57;3.53;;;486.60;2380.80;;;;;;5054913;28;20025;-74
2021/07/02 04:02:48;;;;;;;7.88;3.38;;;486.60;2380.80;;;;;;5057797;28;20031;-74
2021/07/02 04:05:14;;;;;;;5.63;3.30;;;486.60;2380.80;;;;;;5053733;28;20029;-76
2021/07/02 04:07:40;;;;;;;6.53;3.70;;;486.70;2380.80;;;;;;5054723;28;20077;-72
2021/07/02 04:10:06;;;;;;;4.97;3.30;;;486.80;2380.80;;;;;;5054749;28;20025;-73
2021/07/02 04:12:32;;;;;;;7.15;3.83;;;486.90;2380.80;;;;;;5054750;28;20032;-76
2021/07/02 04:14:58;;;;;;;6.70;3.58;;;487.00;2380.80;;;;;;5063953;28;20029;-75
2021/07/02 04:17:24;;;;;;;6.47;3.50;;;487.00;2380.80;;;;;;5058918;28;20059;-71
2021/07/02 04:19:50;;;;;;;5.28;3.90;;;487.10;2380.80;;;;;;5054669;28;20048;-72
2021/07/02 04:22:16;;;;;;;7.15;4.10;;;487.20;2380.80;;;;;;5054394;28;20048;-72
2021/07/02 04:24:41;;;;;;;8.13;3.80;;;487.20;2380.80;;;;;;5054396;28;20547;-71
2021/07/02 04:27:07;;;;;;;5.60;4.10;;;487.20;2380.80;;;;;;5054349;28;20044;-71
2021/07/02 04:29:33;;;;;;;7.32;4.18;;;487.30;2380.80;;;;;;5054446;28;20028;-70
2021/07/02 04:31:59;;;;;;;6.15;3.90;;;512.00;2380.80;;;;;;5054293;28;20399;-73
2021/07/02 04:34:25;;;;;;;7.03;4.40;;;512.00;2380.80;;;;;;5054556;28;20483;-75
2021/07/02 04:36:50;;;;;;;8.63;4.70;;;512.20;2380.80;;;;;;5054421;28;20033;-70
2021/07/02 04:39:18;;;;;;;8.20;4.70;;;512.40;2380.80;;;;;;5054228;28;20025;-71
2021/07/02 04:41:44;;;;;;;6.93;5.90;;;512.50;2380.80;;;;;;5053175;28;20040;-73
2021/07/02 04:44:10;;;;;;;5.90;4.78;;;512.60;2380.80;;;;;;5054275;28;20029;-76
2021/07/02 04:46:36;;;;;;;6.22;4.93;;;512.80;2380.80;;;;;;5054187;28;20051;-74
2021/07/02 04:49:01;;;;;;;6.55;5.00;;;512.90;2380.80;;;;;;5054230;28;20029;-72
2021/07/02 04:51:27;;;;;;;5.68;4.88;;;537.60;2406.40;;;;;;5063194;28;20048;-76
2021/07/02 04:53:53;;;;;;;8.55;5.10;;;537.90;2406.40;;;;;;5056260;28;20049;-74
2021/07/02 04:56:19;;;;;;;6.70;4.70;;;538.30;2406.40;;;;;;5058763;28;20025;-75
2021/07/02 04:58:51;;;;;;;6.00;4.50;;;615.00;2432.00;;;;;;5054065;28;20024;-75
2021/07/02 05:01:17;;;;;;;6.43;4.90;;;717.60;2432.00;;;;;;5054326;28;20027;-75
2021/07/02 05:03:43;;;;;;;5.45;3.90;;;793.60;2432.00;;;;;;5056579;28;20627;-74
2021/07/02 05:06:09;;;;;;;4.80;4.05;;;793.70;2432.00;;;;;;5054237;28;20032;-71
2021/07/02 05:08:37;;;;;;;6.30;4.45;;;768.10;2432.00;;;;;;5052863;28;20498;-71
2021/07/02 05:11:03;;;;;;;6.70;4.05;;;819.60;2432.00;;;;;;5053461;28;20077;-71
2021/07/02 05:13:28;;;;;;;5.53;3.60;;;870.70;2227.20;;;;;;5053861;28;20104;-71
2021/07/02 05:15:54;;;;;;;4.85;3.70;;;845.20;2252.80;;;;;;5067140;28;20029;-73
2021/07/02 05:18:20;;;;;;;4.38;3.70;;;870.50;2124.80;;;;;;5053518;28;20025;-76
2021/07/02 05:20:46;;;;;;;3.97;3.58;;;896.90;1945.60;;;;;;5054987;28;20032;-72
2021/07/02 05:23:12;;;;;;;6.55;4.03;;;947.30;1843.20;;;;;;5054391;28;20037;-76
2021/07/02 05:25:38;;;;;;;6.38;3.60;;;972.90;1740.80;;;;;;5053272;28;20032;-72
2021/07/02 05:28:05;;;;;;;4.43;3.47;;;973.70;1664.00;;;;;;5052647;28;20027;-72
2021/07/02 05:30:31;;;;;;;4.57;3.50;;;998.60;1638.40;;;;;;5055554;28;20013;-74
2021/07/02 05:32:57;;;;;;;5.32;3.47;;;999.00;1587.20;;;;;;5057340;28;20402;-70
2021/07/02 05:35:22;;;;;;;5.13;3.00;;;998.40;1612.80;;;;;;5055609;28;20017;-73
2021/07/02 05:37:48;;;;;;;4.20;2.80;;;921.90;1664.00;;;;;;5055287;28;20109;-73
2021/07/02 05:40:16;;;;;;;4.85;2.83;;;845.20;1817.60;;;;;;5054561;28;20024;-71
2021/07/02 05:42:42;;;;;;;3.70;2.60;;;768.60;1945.60;;;;;;5053945;28;20028;-71
2021/07/02 05:45:09;;;;;;;4.55;2.80;;;742.60;2048.00;;;;;;5057483;28;20104;-76
2021/07/02 05:47:47;;;;;;;6.07;3.28;;;716.80;2124.80;;;;;;5055695;28;20021;-77
2021/07/02 05:50:13;;;;;;;4.43;3.22;;;691.40;2227.20;;;;;;5057320;28;20494;-76
2021/07/02 05:52:40;;;;;;;4.82;2.90;;;666.10;2329.60;;;;;;5055401;28;20029;-71
2021/07/02 05:55:06;;;;;;;7.57;3.28;;;640.90;2380.80;;;;;;5059721;28;20024;-71
2021/07/02 05:57:32;;;;;;;6.57;3.97;;;640.60;2432.00;;;;;;5055023;28;20029;-70
2021/07/02 05:59:58;;;;;;;4.78;3.00;;;640.10;2432.00;;;;;;5055235;28;20395;-74
2021/07/02 06:02:24;;;;;;;4.22;2.70;;;615.30;2432.00;;;;;;5057524;28;20024;-75
2021/07/02 06:04:50;;;;;;;5.38;3.28;;;615.10;2432.00;;;;;;5054888;28;20031;-76
2021/07/02 06:07:16;;;;;;;5.15;3.50;;;615.00;2432.00;;;;;;5056971;28;20013;-71
2021/07/02 06:09:42;;;;;;;5.47;3.60;;;614.90;2432.00;;;;;;5054799;28;20509;-72
2021/07/02 06:12:08;;;;;;;5.10;3.63;;;614.80;2432.00;;;;;;5056841;28;20029;-70
2021/07/02 06:14:33;;;;;;;7.32;3.85;;;614.60;2432.00;;;;;;5060595;28;20020;-71
2021/07/02 06:17:00;;;;;;;7.40;4.00;;;614.90;2432.00;;;;;;5059333;28;20107;-76
2021/07/02 06:19:27;;;;;;;4.68;3.50;;;615.10;2432.00;;;;;;5056468;28;20450;-71
2021/07/02 06:21:52;;;;;;;4.47;3.30;;;640.00;2432.00;;;;;;5053326;28;20116;-74
2021/07/02 06:24:18;;;;;;;4.55;3.10;;;640.20;2432.00;;;;;;5052474;28;20116;-75
2021/07/02 06:26:47;;;;;;;5.68;3.08;;;640.30;2432.00;;;;;;5052211;28;20032;-74
2021/07/02 06:29:13;;;;;;;4.38;3.33;;;640.50;2432.00;;;;;;5052525;28;20025;-71
2021/07/02 06:31:38;;;;;;;4.10;3.17;;;640.60;2432.00;;;;;;5048461;28;20083;-73
2021/07/02 06:34:04;;;;;;;3.78;2.80;;;640.90;2432.00;;;;;;5052253;28;20029;-75
2021/07/02 06:36:30;;;;;;;4.72;2.90;;;665.60;2432.00;;;;;;5052213;28;20033;-76
2021/07/02 06:38:55;;;;;;;5.40;2.72;;;665.90;2432.00;;;;;;5052234;28;20025;-76
2021/07/02 06:41:21;;;;;;;4.15;2.75;;;666.50;2432.00;;;;;;5051244;28;20228;-76
2021/07/02 06:43:47;;;;;;;5.20;3.17;;;691.30;2432.00;;;;;;5052020;28;20476;-71
2021/07/02 06:46:13;;;;;;;4.32;3.10;;;691.60;2432.00;;;;;;5052394;28;20147;-71
2021/07/02 06:48:39;;;;;;;6.18;4.03;;;691.50;2432.00;;;;;;5062045;28;20506;-72
2021/07/02 06:51:05;;;;;;;6.15;3.25;;;691.60;2432.00;;;;;;5055075;28;20049;-77
2021/07/02 06:53:30;;;;;;;6.55;3.58;;;691.60;2432.00;;;;;;5059791;28;20094;-76
2021/07/02 06:55:56;;;;;;;5.05;3.70;;;691.60;2432.00;;;;;;5061199;28;20024;-76
2021/07/02 06:58:22;;;;;;;4.22;3.75;;;691.50;2432.00;;;;;;5058668;28;20403;-76
2021/07/02 07:00:48;;;;;;;5.50;3.85;;;691.30;2432.00;;;;;;5058899;28;20071;-76
2021/07/02 07:03:14;;;;;;;4.40;3.80;;;691.40;2432.00;;;;;;5058853;28;20029;-72
2021/07/02 07:05:40;;;;;;;6.50;4.28;;;691.40;2432.00;;;;;;5059431;28;20031;-71
2021/07/02 07:08:08;;;;;;;6.20;4.35;;;691.60;2432.00;;;;;;5057268;28;20387;-72
2021/07/02 07:10:35;;;;;;;6.30;4.38;;;691.60;2432.00;;;;;;5066814;28;20031;-71
2021/07/02 07:13:05;;;;;;;5.95;4.38;;;691.80;2432.00;;;;;;5062134;28;20387;-75
2021/07/02 07:15:30;;;;;;;6.25;4.57;;;716.80;2432.00;;;;;;5069843;28;20059;-75
2021/07/02 07:17:56;;;;;;;5.53;4.40;;;717.50;2432.00;;;;;;5066830;28;20123;-72
2021/07/02 07:20:22;;;;;;;6.60;4.30;;;768.40;2406.40;;;;;;5071152;28;20032;-72
2021/07/02 07:22:48;;;;;;;5.93;4.95;;;845.60;2201.60;;;;;;5056373;28;20432;-73
2021/07/02 07:25:14;;;;;;;5.95;4.05;;;948.10;1817.60;;;;;;5056112;28;20077;-77
2021/07/02 07:27:44;;;;;;;4.85;3.95;;;1024.40;1638.40;;;;;;5056438;28;20021;-70
2021/07/02 07:30:10;;;;;;;4.82;4.43;;;1075.80;1433.60;;;;;;5055553;28;20032;-73
2021/07/02 07:32:37;;;;;;;5.18;4.05;;;1101.70;1356.80;;;;;;5054374;28;20025;-74
2021/07/02 07:35:15;;;;;;;5.22;4.40;;;1127.30;1305.60;;;;;;5055241;28;20029;-75
2021/07/02 07:37:40;;;;;;;6.00;4.45;;;1152.70;1228.80;;;;;;5055500;28;20033;-74
2021/07/02 07:40:07;;;;;;;5.78;4.57;;;1127.10;1228.80;;;;;;5055184;28;20025;-72
2021/07/02 07:42:32;;;;;;;5.68;4.40;;;1075.30;1254.40;;;;;;5054400;28;20021;-72
2021/07/02 07:44:58;;;;;;;4.82;4.38;;;998.70;1382.40;;;;;;5055066;28;20024;-72
2021/07/02 07:47:24;;;;;;;4.50;4.10;;;947.80;1408.00;;;;;;5054096;28;20029;-71
2021/07/02 07:49:50;;;;;;;5.32;4.80;;;921.90;1484.80;;;;;;5055372;28;20021;-73
2021/07/02 07:52:25;;;;;;;6.88;4.72;;;896.40;1459.20;;;;;;5065114;28;20021;-73
2021/07/02 07:54:51;;;;;;;5.03;4.20;;;921.70;1510.40;;;;;;5057907;28;20025;-72
2021/07/02 07:57:17;;;;;;;8.32;4.60;;;921.90;1484.80;;;;;;5056917;28;20057;-71
2021/07/02 07:59:42;;;;;;;4.28;3.88;;;921.60;1484.80;;;;;;5054973;28;20040;-70
2021/07/02 08:02:08;;;;;;;5.85;4.38;;;948.00;1408.00;;;;;;5057001;28;20032;-71
2021/07/02 08:04:34;;;;;;;5.10;4.47;;;921.90;1510.40;;;;;;5061492;28;20025;-74
2021/07/02 08:07:00;;;;;;;5.72;3.97;;;998.80;1382.40;;;;;;5053354;28;20024;-71
2021/07/02 08:09:27;;;;;;;5.32;4.55;;;1076.10;1254.40;;;;;;5054805;28;20021;-78
2021/07/02 08:11:53;;;;;;;5.20;4.38;;;999.20;1331.20;;;;;;5054858;28;20025;-72
2021/07/02 08:14:18;;;;;;;6.10;4.03;;;1101.50;1254.40;;;;;;5057626;28;20560;-70
2021/07/02 08:16:44;;;;;;;5.28;4.07;;;1049.80;1305.60;;;;;;5054251;28;20029;-73
2021/07/02 08:19:10;;;;;;;5.72;4.03;;;998.50;1356.80;;;;;;5054328;28;20021;-73
2021/07/02 08:21:36;;;;;;;5.55;3.50;;;921.70;1459.20;;;;;;5054071;28;20017;-72
2021/07/02 08:24:01;;;;;;;4.95;3.70;;;870.50;1510.40;;;;;;5053189;28;20029;-71
2021/07/02 08:26:27;;;;;;;5.15;3.35;;;998.50;1356.80;;;;;;5053919;28;20466;-71
2021/07/02 08:31:37;;;;;;;5.13;3.80;;;1152.20;1177.60;;;;;;5067476;28;20111;-73
2021/07/02 08:34:03;;;;;;;4.47;3.42;;;1075.80;1228.80;;;;;;5072628;28;20047;-82
2021/07/02 08:36:29;;;;;;;5.53;3.60;;;1075.60;1228.80;;;;;;5071981;28;20095;-77
2021/07/02 08:38:55;;;;;;;4.53;3.63;;;1152.00;1203.20;;;;;;5062192;28;20029;-73
2021/07/02 08:41:20;;;;;;;6.03;3.60;;;1177.60;1152.00;;;;;;5066002;28;20382;-74
2021/07/02 08:43:47;;;;;;;4.95;3.58;;;1075.80;1203.20;;;;;;5073363;28;20029;-80
2021/07/02 08:46:15;;;;;;;5.57;3.60;;;1101.10;1228.80;;;;;;5058255;28;20049;-76
2021/07/02 08:48:41;;;;;;;4.47;3.20;;;1075.40;1228.80;;;;;;5060723;28;20025;-73
2021/07/02 08:51:09;;;;;;;4.63;3.50;;;1024.50;1280.00;;;;;;5072347;28;20117;-72
2021/07/02 08:53:36;;;;;;;4.65;3.55;;;972.80;1356.80;;;;;;5067664;28;20475;-72
2021/07/02 08:56:04;;;;;;;5.57;3.67;;;896.90;1356.80;;;;;;5071652;28;20028;-72
2021/07/02 08:58:32;;;;;;;4.43;3.60;;;896.00;1433.60;;;;;;5073666;28;20015;-72
2021/07/02 09:00:59;;;;;;;5.18;3.80;;;870.70;1484.80;;;;;;5070364;28;20020;-72
2021/07/02 09:03:31;;;;;;;4.40;3.30;;;845.70;1536.00;;;;;;5066550;28;20501;-72
2021/07/02 09:06:10;;;;;;;4.00;3.60;;;845.20;1561.60;;;;;;5072835;28;20031;-71
2021/07/02 09:08:36;;;;;;;4.53;3.60;;;819.70;1561.60;;;;;;5073719;28;20035;-71
2021/07/02 09:11:22;;;;;;;7.40;3.70;;;794.50;1612.80;;;;;;5070911;28;20028;-73
2021/07/02 09:13:47;;;;;;;3.88;3.22;;;793.80;1638.40;;;;;;5072088;28;20025;-72
2021/07/02 09:16:40;;;;;;;3.45;2.90;;;768.40;1664.00;;;;;;5058783;28;20195;-72
2021/07/02 09:19:30;;;;;;;4.25;2.95;;;743.00;1715.20;;;;;;5072159;28;20100;-72
2021/07/02 09:22:16;;;;;;;3.95;2.90;;;742.60;1740.80;;;;;;5069479;28;20029;-73
2021/07/02 09:24:44;;;;;;;7.05;2.60;;;743.00;1740.80;;;;;;5057648;28;20041;-73
2021/07/02 09:27:30;;;;;;;6.93;2.70;;;743.30;1715.20;;;;;;5065630;28;20028;-72
2021/07/02 09:30:08;;;;;;;4.22;2.78;;;743.30;1715.20;;;;;;5063688;28;20025;-72
2021/07/02 09:32:42;;;;;;;5.05;3.03;;;743.10;1740.80;;;;;;5065800;28;20044;-73
2021/07/02 09:35:09;;;;;;;4.82;3.00;;;742.80;1766.40;;;;;;5069135;28;20123;-71
2021/07/02 09:37:45;;;;;;;10.23;3.15;;;742.40;1792.00;;;;;;5060806;28;20021;-71
2021/07/02 09:40:23;;;;;;;5.40;3.13;;;742.40;1792.00;;;;;;5065990;28;20020;-71
2021/07/02 09:43:00;;;;;;;4.90;2.92;;;717.40;1792.00;;;;;;5071401;28;20020;-71
2021/07/02 09:45:27;;;;;;;3.40;2.50;;;717.20;1843.20;;;;;;5069783;28;20028;-72
2021/07/02 09:47:53;;;;;;;3.58;2.60;;;717.10;1817.60;;;;;;5061307;28;20112;-72
2021/07/02 09:50:20;;;;;;;6.43;2.50;;;717.40;1817.60;;;;;;5053259;28;20068;-71
2021/07/02 09:52:58;;;;;;;4.75;2.10;;;717.50;1792.00;;;;;;5053244;28;20021;-72
2021/07/02 09:55:35;;;;;;;4.00;1.90;;;742.40;1766.40;;;;;;5055957;28;20021;-79
2021/07/02 09:58:18;;;;;;;4.25;2.03;;;717.50;1715.20;;;;;;5053346;28;20086;-72
2021/07/02 10:00:48;;;;;;;3.30;2.20;;;717.40;1766.40;;;;;;5061384;28;20162;-72
2021/07/02 10:03:14;;;;;;;;;;;717.40;1766.40;;;;;;5067929;28;20027;-71
2021/07/02 10:05:45;;;;;;;3.50;1.80;;;717.70;1740.80;;;;;;5068806;28;20363;-71
2021/07/02 10:08:11;;;;;;;2.60;1.60;;;742.60;1766.40;;;;;;5071320;28;20386;-72
2021/07/02 10:10:37;;;;;;;12.45;2.20;;;742.50;1766.40;;;;;;5062571;28;20025;-72
2021/07/02 10:13:05;;;;;;;3.78;1.40;;;717.50;1740.80;;;;;;5071608;28;20505;-73
2021/07/02 10:15:31;;;;;;;3.03;1.30;;;717.70;1715.20;;;;;;5058607;28;20029;-72
2021/07/02 10:17:58;;;;;;;2.90;1.40;;;717.70;1715.20;;;;;;5069451;28;20081;-75
2021/07/02 10:20:29;;;;;;;3.10;1.50;;;742.50;1715.20;;;;;;5070445;28;20020;-72
2021/07/02 10:22:58;;;;;;;2.63;1.50;;;742.60;1715.20;;;;;;5070201;28;20106;-75
2021/07/02 10:25:29;;;;;;;2.47;1.40;;;742.80;1689.60;;;;;;5067818;28;20124;-77
2021/07/02 10:27:56;;;;;;;3.25;1.60;;;742.80;1689.60;;;;;;5070379;28;20016;-72
2021/07/02 10:30:22;;;;;;;2.63;1.40;;;742.90;1689.60;;;;;;5070295;28;20478;-72
2021/07/02 10:32:52;;;;;;;2.10;1.30;;;742.90;1664.00;;;;;;5072223;28;20537;-72
2021/07/02 10:35:18;;;;;;;2.80;1.60;;;742.80;1664.00;;;;;;5067788;28;20021;-71
2021/07/02 10:37:48;;;;;;;3.72;1.42;;;743.00;1689.60;;;;;;5064299;28;20476;-71
2021/07/02 10:40:32;;;;;;;2.95;1.50;;;743.00;1664.00;;;;;;5060742;28;20037;-71
2021/07/02 10:43:26;;;;;;;2.50;1.42;;;743.10;1664.00;;;;;;5060148;28;20025;-72
2021/07/02 10:46:12;;;;;;;3.47;1.40;;;743.20;1689.60;;;;;;5056254;28;20797;-72
2021/07/02 10:48:50;;;;;;;3.13;1.50;;;743.20;1664.00;;;;;;5064023;28;20048;-72
2021/07/02 10:51:39;;;;;;;3.55;1.60;;;743.00;1689.60;;;;;;5055315;28;20055;-73
2021/07/02 10:54:13;;;;;;;2.50;1.40;;;742.80;1689.60;;;;;;5061259;28;20027;-73
2021/07/02 10:56:46;;;;;;;3.72;1.48;;;742.60;1689.60;;;;;;5057901;28;20184;-78
2021/07/02 10:59:12;;;;;;;3.05;1.58;;;742.60;1715.20;;;;;;5055958;28;20512;-72
2021/07/02 11:02:07;;;;;;;4.65;1.45;;;742.90;1715.20;;;;;;5051857;28;20032;-73
2021/07/02 11:04:40;;;;;;;2.85;1.40;;;743.00;1715.20;;;;;;5067847;28;20042;-75
2021/07/02 11:07:12;;;;;;;2.40;1.38;;;742.80;1740.80;;;;;;5065252;28;20025;-72
2021/07/02 11:10:00;;;;;;;2.20;1.23;;;742.80;1740.80;;;;;;5068949;28;20070;-71
2021/07/02 11:12:38;;;;;;;2.22;1.10;;;742.80;1689.60;;;;;;5066773;28;20040;-72
2021/07/02 11:15:05;;;;;;;1.63;1.00;;;742.70;1638.40;;;;;;5062157;28;20485;-70
2021/07/02 11:17:36;;;;;;;1.45;1.00;;;742.50;1587.20;;;;;;5065685;28;20490;-71
2021/07/02 11:22:35;;;;;;;3.40;1.38;;;742.50;1689.60;;;;;;5068181;28;20036;-70
2021/07/02 11:25:02;;;;;;;2.08;1.30;;;742.40;1715.20;;;;;;5067859;28;20029;-72
2021/07/02 11:27:45;;;;;;;2.85;1.20;;;717.70;1664.00;;;;;;5063937;28;20027;-73
2021/07/02 11:30:20;;;;;;;2.00;1.20;;;742.40;1664.00;;;;;;5069228;28;20021;-71
2021/07/02 11:32:48;;;;;;;2.83;1.20;;;717.60;1638.40;;;;;;5071151;28;20044;-81
2021/07/02 11:35:47;;;;;;;2.78;1.50;;;717.70;1638.40;;;;;;5068545;28;20021;-76
2021/07/02 11:38:17;;;;;;;2.63;1.40;;;742.60;1664.00;;;;;;5068173;28;20056;-73
2021/07/02 11:40:54;;;;;;;1.85;1.30;;;743.00;1638.40;;;;;;5069602;28;20040;-77
2021/07/02 11:43:37;;;;;;;4.05;1.50;;;768.10;1638.40;;;;;;5071780;28;20052;-76
2021/07/02 11:46:14;;;;;;;3.45;1.60;;;768.60;1587.20;;;;;;5073487;28;20013;-74
2021/07/02 11:48:41;;;;;;;3.53;1.55;;;793.70;1612.80;;;;;;5067392;28;20104;-75
2021/07/02 11:51:09;;;;;;;3.20;1.50;;;794.20;1612.80;;;;;;5072993;28;20230;-76
2021/07/02 11:53:37;;;;;;;2.75;1.45;;;794.50;1587.20;;;;;;5072199;28;20025;-74
2021/07/02 11:56:12;;;;;;;5.72;1.50;;;768.90;1587.20;;;;;;5074217;28;20048;-81
2021/07/02 11:58:41;;;;;;;3.80;1.48;;;768.10;1638.40;;;;;;5074882;28;20016;-75
2021/07/02 12:01:25;;;;;;;4.35;1.52;;;743.10;1638.40;;;;;;5080718;28;20113;-81
2021/07/02 12:03:58;;;;;;;3.85;1.30;;;743.00;1638.40;;;;;;5069806;28;20258;-85
2021/07/02 12:06:27;;;;;;;2.60;1.20;;;768.40;1561.60;;;;;;5071912;28;20016;-83
2021/07/02 12:08:54;;;;;;;2.30;1.20;;;768.10;1536.00;;;;;;5072504;28;20020;-88
2021/07/02 12:11:29;;;;;;;2.60;1.42;;;768.40;1561.60;;;;;;5075097;28;20025;-81
2021/07/02 12:13:55;;;;;;;2.15;1.40;;;768.90;1561.60;;;;;;5070999;28;20098;-76
2021/07/02 12:16:33;;;;;;;3.75;1.50;;;793.70;1561.60;;;;;;5068574;28;20025;-79
2021/07/02 12:18:59;;;;;;;2.97;1.33;;;793.80;1561.60;;;;;;5060419;28;20097;-82
2021/07/02 12:21:29;;;;;;;3.55;1.42;;;793.90;1612.80;;;;;;5059288;28;20455;-78
2021/07/02 12:23:59;;;;;;;;;;;794.00;1587.20;;;;;;5062886;28;20490;-80
2021/07/02 12:26:27;;;;;;;4.03;1.63;;;794.00;1561.60;;;;;;5067329;28;19910;-77
2021/07/02 12:29:13;;;;;;;2.70;1.30;;;793.90;1561.60;;;;;;5062183;28;20032;-78